sensor_id;sensor_type;location;lat;lon;timestamp;temperature;humidity
423;DHT22;198;48.752;9.180;2023-04-01T00:00:46;8.20;99.90
423;DHT22;198;48.752;9.180;2023-04-01T00:03:13;8.20;99.90
423;DHT22;198;48.752;9.180;2023-04-01T00:05:38;8.20;99.90
423;DHT22;198;48.752;9.180;2023-04-01T00:08:04;8.30;99.90
423;DHT22;198;48.752;9.180;2023-04-01T00:10:29;8.30;99.90
423;DHT22;198;48.752;9.180;2023-04-01T00:12:55;8.40;99.90
423;DHT22;198;48.752;9.180;2023-04-01T00:15:20;8.50;99.90
423;DHT22;198;48.752;9.180;2023-04-01T00:17:46;8.50;99.90
423;DHT22;198;48.752;9.180;2023-04-01T00:20:12;8.50;99.90
423;DHT22;198;48.752;9.180;2023-04-01T00:22:40;8.60;99.90
423;DHT22;198;48.752;9.180;2023-04-01T00:25:06;8.60;99.90
423;DHT22;198;48.752;9.180;2023-04-01T00:27:31;8.60;99.90
423;DHT22;198;48.752;9.180;2023-04-01T00:29:57;8.50;99.90
423;DHT22;198;48.752;9.180;2023-04-01T00:32:22;8.50;99.90
423;DHT22;198;48.752;9.180;2023-04-01T00:34:51;8.40;99.90
423;DHT22;198;48.752;9.180;2023-04-01T00:37:18;8.40;99.90
423;DHT22;198;48.752;9.180;2023-04-01T00:39:44;8.50;99.90
423;DHT22;198;48.752;9.180;2023-04-01T00:42:10;8.50;99.90
423;DHT22;198;48.752;9.180;2023-04-01T00:44:37;8.50;99.90
423;DHT22;198;48.752;9.180;2023-04-01T00:47:03;8.50;99.90
423;DHT22;198;48.752;9.180;2023-04-01T00:49:36;8.40;99.90
423;DHT22;198;48.752;9.180;2023-04-01T00:52:04;8.50;99.90
423;DHT22;198;48.752;9.180;2023-04-01T00:54:31;8.60;99.90
423;DHT22;198;48.752;9.180;2023-04-01T00:57:06;8.60;99.90
423;DHT22;198;48.752;9.180;2023-04-01T00:59:45;8.70;99.90
423;DHT22;198;48.752;9.180;2023-04-01T01:02:12;8.70;99.90
423;DHT22;198;48.752;9.180;2023-04-01T01:04:38;8.80;99.90
423;DHT22;198;48.752;9.180;2023-04-01T01:07:46;8.80;99.90
423;DHT22;198;48.752;9.180;2023-04-01T01:10:20;8.80;99.90
423;DHT22;198;48.752;9.180;2023-04-01T01:15:58;8.80;99.90
423;DHT22;198;48.752;9.180;2023-04-01T01:18:35;8.80;99.90
423;DHT22;198;48.752;9.180;2023-04-01T01:21:30;8.80;99.90
423;DHT22;198;48.752;9.180;2023-04-01T01:27:11;8.80;99.90
423;DHT22;198;48.752;9.180;2023-04-01T01:32:38;8.70;99.90
423;DHT22;198;48.752;9.180;2023-04-01T01:35:20;8.70;99.90
423;DHT22;198;48.752;9.180;2023-04-01T01:37:51;8.70;99.90
423;DHT22;198;48.752;9.180;2023-04-01T01:40:18;8.70;99.90
423;DHT22;198;48.752;9.180;2023-04-01T01:42:48;8.70;99.90
423;DHT22;198;48.752;9.180;2023-04-01T01:45:16;8.70;99.90
423;DHT22;198;48.752;9.180;2023-04-01T01:47:45;8.70;99.90
423;DHT22;198;48.752;9.180;2023-04-01T01:50:12;8.70;99.90
423;DHT22;198;48.752;9.180;2023-04-01T01:52:38;8.70;99.90
423;DHT22;198;48.752;9.180;2023-04-01T01:57:58;8.50;99.90
423;DHT22;198;48.752;9.180;2023-04-01T02:00:25;8.50;99.90
423;DHT22;198;48.752;9.180;2023-04-01T02:02:51;8.50;99.90
423;DHT22;198;48.752;9.180;2023-04-01T02:05:21;8.50;99.90
423;DHT22;198;48.752;9.180;2023-04-01T02:07:55;8.40;99.90
423;DHT22;198;48.752;9.180;2023-04-01T02:10:27;8.40;99.90
423;DHT22;198;48.752;9.180;2023-04-01T02:12:56;8.30;99.90
423;DHT22;198;48.752;9.180;2023-04-01T02:15:24;8.30;99.90
423;DHT22;198;48.752;9.180;2023-04-01T02:17:52;8.30;99.90
423;DHT22;198;48.752;9.180;2023-04-01T02:20:22;8.30;99.90
423;DHT22;198;48.752;9.180;2023-04-01T02:22:51;8.20;99.90
423;DHT22;198;48.752;9.180;2023-04-01T02:25:22;8.20;99.90
423;DHT22;198;48.752;9.180;2023-04-01T02:27:48;8.20;99.90
423;DHT22;198;48.752;9.180;2023-04-01T02:30:16;8.10;99.90
423;DHT22;198;48.752;9.180;2023-04-01T02:32:42;8.10;99.90
423;DHT22;198;48.752;9.180;2023-04-01T02:35:10;8.10;99.90
423;DHT22;198;48.752;9.180;2023-04-01T02:37:38;8.10;99.90
423;DHT22;198;48.752;9.180;2023-04-01T02:40:06;8.10;99.90
423;DHT22;198;48.752;9.180;2023-04-01T02:42:33;8.00;99.90
423;DHT22;198;48.752;9.180;2023-04-01T02:44:59;8.00;99.90
423;DHT22;198;48.752;9.180;2023-04-01T02:47:25;7.90;99.90
423;DHT22;198;48.752;9.180;2023-04-01T02:49:50;7.90;99.90
423;DHT22;198;48.752;9.180;2023-04-01T02:52:16;7.90;99.90
423;DHT22;198;48.752;9.180;2023-04-01T02:54:42;7.90;99.90
423;DHT22;198;48.752;9.180;2023-04-01T02:57:07;7.90;99.90
423;DHT22;198;48.752;9.180;2023-04-01T02:59:33;7.80;99.90
423;DHT22;198;48.752;9.180;2023-04-01T03:01:58;7.70;99.90
423;DHT22;198;48.752;9.180;2023-04-01T03:04:24;7.70;99.90
423;DHT22;198;48.752;9.180;2023-04-01T03:06:49;7.70;99.90
423;DHT22;198;48.752;9.180;2023-04-01T03:09:16;7.70;99.90
423;DHT22;198;48.752;9.180;2023-04-01T03:11:42;7.70;99.90
423;DHT22;198;48.752;9.180;2023-04-01T03:14:07;7.70;99.90
423;DHT22;198;48.752;9.180;2023-04-01T03:16:32;7.70;99.90
423;DHT22;198;48.752;9.180;2023-04-01T03:18:58;7.80;99.90
423;DHT22;198;48.752;9.180;2023-04-01T03:21:25;7.80;99.90
423;DHT22;198;48.752;9.180;2023-04-01T03:23:51;7.80;99.90
423;DHT22;198;48.752;9.180;2023-04-01T03:26:16;7.80;99.90
423;DHT22;198;48.752;9.180;2023-04-01T03:28:42;7.90;99.90
423;DHT22;198;48.752;9.180;2023-04-01T03:31:08;7.80;99.90
423;DHT22;198;48.752;9.180;2023-04-01T03:33:33;7.80;99.90
423;DHT22;198;48.752;9.180;2023-04-01T03:35:59;7.80;99.90
423;DHT22;198;48.752;9.180;2023-04-01T03:38:25;7.90;99.90
423;DHT22;198;48.752;9.180;2023-04-01T03:40:50;7.90;99.90
423;DHT22;198;48.752;9.180;2023-04-01T03:43:16;8.00;99.90
423;DHT22;198;48.752;9.180;2023-04-01T03:45:50;8.00;99.90
423;DHT22;198;48.752;9.180;2023-04-01T03:48:16;8.00;99.90
423;DHT22;198;48.752;9.180;2023-04-01T03:50:42;7.90;99.90
423;DHT22;198;48.752;9.180;2023-04-01T03:53:07;7.90;99.90
423;DHT22;198;48.752;9.180;2023-04-01T03:55:33;7.90;99.90
423;DHT22;198;48.752;9.180;2023-04-01T03:58:00;7.90;99.90
423;DHT22;198;48.752;9.180;2023-04-01T04:00:28;7.90;99.90
423;DHT22;198;48.752;9.180;2023-04-01T04:02:53;7.80;99.90
423;DHT22;198;48.752;9.180;2023-04-01T04:05:21;7.80;99.90
423;DHT22;198;48.752;9.180;2023-04-01T04:07:46;7.70;99.90
423;DHT22;198;48.752;9.180;2023-04-01T04:10:11;7.70;99.90
423;DHT22;198;48.752;9.180;2023-04-01T04:12:37;7.60;99.90
423;DHT22;198;48.752;9.180;2023-04-01T04:15:03;7.70;99.90
423;DHT22;198;48.752;9.180;2023-04-01T04:17:28;7.70;99.90
423;DHT22;198;48.752;9.180;2023-04-01T04:19:54;7.60;99.90
423;DHT22;198;48.752;9.180;2023-04-01T04:22:19;7.60;99.90
423;DHT22;198;48.752;9.180;2023-04-01T04:24:45;7.60;99.90
423;DHT22;198;48.752;9.180;2023-04-01T04:27:10;7.60;99.90
423;DHT22;198;48.752;9.180;2023-04-01T04:29:36;7.60;99.90
423;DHT22;198;48.752;9.180;2023-04-01T04:32:01;7.50;99.90
423;DHT22;198;48.752;9.180;2023-04-01T04:34:27;7.50;99.90
423;DHT22;198;48.752;9.180;2023-04-01T04:36:52;7.50;99.90
423;DHT22;198;48.752;9.180;2023-04-01T04:39:18;7.50;99.90
423;DHT22;198;48.752;9.180;2023-04-01T04:41:43;7.50;99.90
423;DHT22;198;48.752;9.180;2023-04-01T04:44:09;7.50;99.90
423;DHT22;198;48.752;9.180;2023-04-01T04:46:34;7.50;99.90
423;DHT22;198;48.752;9.180;2023-04-01T04:49:01;7.50;99.90
423;DHT22;198;48.752;9.180;2023-04-01T04:51:26;7.50;99.90
423;DHT22;198;48.752;9.180;2023-04-01T04:53:52;7.50;99.90
423;DHT22;198;48.752;9.180;2023-04-01T04:56:21;7.50;99.90
423;DHT22;198;48.752;9.180;2023-04-01T04:58:46;7.60;99.90
423;DHT22;198;48.752;9.180;2023-04-01T05:01:14;7.60;99.90
423;DHT22;198;48.752;9.180;2023-04-01T05:03:40;7.60;99.90
423;DHT22;198;48.752;9.180;2023-04-01T05:06:08;7.60;99.90
423;DHT22;198;48.752;9.180;2023-04-01T05:08:34;7.70;99.90
423;DHT22;198;48.752;9.180;2023-04-01T05:11:01;7.70;99.90
423;DHT22;198;48.752;9.180;2023-04-01T05:13:27;7.80;99.90
423;DHT22;198;48.752;9.180;2023-04-01T05:15:52;7.80;99.90
423;DHT22;198;48.752;9.180;2023-04-01T05:18:18;7.80;99.90
423;DHT22;198;48.752;9.180;2023-04-01T05:20:52;7.90;99.90
423;DHT22;198;48.752;9.180;2023-04-01T05:23:18;7.90;99.90
423;DHT22;198;48.752;9.180;2023-04-01T05:25:46;7.90;99.90
423;DHT22;198;48.752;9.180;2023-04-01T05:28:12;7.90;99.90
423;DHT22;198;48.752;9.180;2023-04-01T05:30:42;7.90;99.90
423;DHT22;198;48.752;9.180;2023-04-01T05:33:09;7.90;99.90
423;DHT22;198;48.752;9.180;2023-04-01T05:35:35;7.90;99.90
423;DHT22;198;48.752;9.180;2023-04-01T05:38:01;7.90;99.90
423;DHT22;198;48.752;9.180;2023-04-01T05:40:28;7.90;99.90
423;DHT22;198;48.752;9.180;2023-04-01T05:42:53;7.90;99.90
423;DHT22;198;48.752;9.180;2023-04-01T05:45:19;7.90;99.90
423;DHT22;198;48.752;9.180;2023-04-01T05:47:45;8.00;99.90
423;DHT22;198;48.752;9.180;2023-04-01T05:50:10;8.10;99.90
423;DHT22;198;48.752;9.180;2023-04-01T05:52:36;8.10;99.90
423;DHT22;198;48.752;9.180;2023-04-01T05:55:02;8.20;99.90
423;DHT22;198;48.752;9.180;2023-04-01T05:57:27;8.20;99.90
423;DHT22;198;48.752;9.180;2023-04-01T05:59:53;8.20;99.90
423;DHT22;198;48.752;9.180;2023-04-01T06:02:18;8.20;99.90
423;DHT22;198;48.752;9.180;2023-04-01T06:04:45;8.20;99.90
423;DHT22;198;48.752;9.180;2023-04-01T06:07:15;8.30;99.90
423;DHT22;198;48.752;9.180;2023-04-01T06:09:42;8.30;99.90
423;DHT22;198;48.752;9.180;2023-04-01T06:15:14;8.30;99.90
423;DHT22;198;48.752;9.180;2023-04-01T06:18:01;8.30;99.90
423;DHT22;198;48.752;9.180;2023-04-01T06:20:57;8.40;99.90
423;DHT22;198;48.752;9.180;2023-04-01T06:26:33;8.60;99.90
423;DHT22;198;48.752;9.180;2023-04-01T06:34:42;8.60;99.90
423;DHT22;198;48.752;9.180;2023-04-01T06:48:27;8.70;99.90
423;DHT22;198;48.752;9.180;2023-04-01T06:51:07;8.70;99.90
423;DHT22;198;48.752;9.180;2023-04-01T06:54:01;8.90;99.90
423;DHT22;198;48.752;9.180;2023-04-01T06:56:28;8.90;99.90
423;DHT22;198;48.752;9.180;2023-04-01T06:59:05;8.80;99.90
423;DHT22;198;48.752;9.180;2023-04-01T07:01:41;8.90;99.90
423;DHT22;198;48.752;9.180;2023-04-01T07:06:48;9.10;99.90
423;DHT22;198;48.752;9.180;2023-04-01T07:09:26;9.10;99.90
423;DHT22;198;48.752;9.180;2023-04-01T07:11:56;9.20;99.90
423;DHT22;198;48.752;9.180;2023-04-01T07:14:36;9.20;99.90
423;DHT22;198;48.752;9.180;2023-04-01T07:17:08;9.20;99.90
423;DHT22;198;48.752;9.180;2023-04-01T07:19:43;9.10;99.90
423;DHT22;198;48.752;9.180;2023-04-01T07:22:27;9.20;99.90
423;DHT22;198;48.752;9.180;2023-04-01T07:24:54;9.20;99.90
423;DHT22;198;48.752;9.180;2023-04-01T07:27:20;9.10;99.90
423;DHT22;198;48.752;9.180;2023-04-01T07:29:45;9.10;99.90
423;DHT22;198;48.752;9.180;2023-04-01T07:32:32;9.10;99.90
423;DHT22;198;48.752;9.180;2023-04-01T07:43:28;9.10;99.90
423;DHT22;198;48.752;9.180;2023-04-01T07:51:17;9.10;99.90
423;DHT22;198;48.752;9.180;2023-04-01T07:54:08;9.10;99.90
423;DHT22;198;48.752;9.180;2023-04-01T07:56:51;9.10;99.90
423;DHT22;198;48.752;9.180;2023-04-01T08:02:33;9.20;99.90
423;DHT22;198;48.752;9.180;2023-04-01T08:05:04;9.20;99.90
423;DHT22;198;48.752;9.180;2023-04-01T08:07:45;9.20;99.90
423;DHT22;198;48.752;9.180;2023-04-01T08:13:16;9.40;99.90
423;DHT22;198;48.752;9.180;2023-04-01T08:18:43;9.50;99.90
423;DHT22;198;48.752;9.180;2023-04-01T08:21:25;9.50;99.90
423;DHT22;198;48.752;9.180;2023-04-01T08:23:55;9.50;99.90
423;DHT22;198;48.752;9.180;2023-04-01T08:26:37;9.50;99.90
423;DHT22;198;48.752;9.180;2023-04-01T08:29:14;9.50;99.90
423;DHT22;198;48.752;9.180;2023-04-01T08:34:28;9.50;99.90
423;DHT22;198;48.752;9.180;2023-04-01T08:37:08;9.50;99.90
423;DHT22;198;48.752;9.180;2023-04-01T08:39:46;9.40;99.90
423;DHT22;198;48.752;9.180;2023-04-01T08:42:41;9.50;99.90
423;DHT22;198;48.752;9.180;2023-04-01T08:45:44;9.50;99.90
423;DHT22;198;48.752;9.180;2023-04-01T08:53:56;8.70;99.90
423;DHT22;198;48.752;9.180;2023-04-01T09:01:51;8.30;99.90
423;DHT22;198;48.752;9.180;2023-04-01T09:06:55;8.20;99.90
423;DHT22;198;48.752;9.180;2023-04-01T09:09:40;8.20;99.90
423;DHT22;198;48.752;9.180;2023-04-01T09:15:33;8.30;99.90
423;DHT22;198;48.752;9.180;2023-04-01T09:18:05;8.50;99.90
423;DHT22;198;48.752;9.180;2023-04-01T09:28:45;9.00;99.90
423;DHT22;198;48.752;9.180;2023-04-01T09:31:31;9.00;99.90
423;DHT22;198;48.752;9.180;2023-04-01T09:37:04;9.40;99.90
423;DHT22;198;48.752;9.180;2023-04-01T09:39:37;9.60;99.90
423;DHT22;198;48.752;9.180;2023-04-01T09:45:00;9.50;99.90
423;DHT22;198;48.752;9.180;2023-04-01T09:51:05;9.20;99.90
423;DHT22;198;48.752;9.180;2023-04-01T09:54:24;9.20;99.90
423;DHT22;198;48.752;9.180;2023-04-01T09:59:24;9.10;99.90
423;DHT22;198;48.752;9.180;2023-04-01T10:18:38;9.30;99.90
423;DHT22;198;48.752;9.180;2023-04-01T10:21:38;9.30;99.90
423;DHT22;198;48.752;9.180;2023-04-01T10:27:10;9.60;99.90
423;DHT22;198;48.752;9.180;2023-04-01T10:32:18;10.00;99.90
423;DHT22;198;48.752;9.180;2023-04-01T10:43:15;11.20;99.90
423;DHT22;198;48.752;9.180;2023-04-01T10:46:05;11.50;99.90
423;DHT22;198;48.752;9.180;2023-04-01T10:54:47;12.40;99.90
423;DHT22;198;48.752;9.180;2023-04-01T10:57:44;12.10;99.90
423;DHT22;198;48.752;9.180;2023-04-01T11:00:50;11.80;99.90
423;DHT22;198;48.752;9.180;2023-04-01T11:15:06;10.80;99.90
423;DHT22;198;48.752;9.180;2023-04-01T11:18:00;10.90;99.90
423;DHT22;198;48.752;9.180;2023-04-01T11:21:00;11.30;99.90
423;DHT22;198;48.752;9.180;2023-04-01T11:23:44;11.50;99.90
423;DHT22;198;48.752;9.180;2023-04-01T11:26:27;12.20;99.90
423;DHT22;198;48.752;9.180;2023-04-01T11:33:05;12.70;99.90
423;DHT22;198;48.752;9.180;2023-04-01T11:35:22;12.80;99.90
423;DHT22;198;48.752;9.180;2023-04-01T11:43:53;12.90;99.90
423;DHT22;198;48.752;9.180;2023-04-01T11:58:06;11.90;99.90
423;DHT22;198;48.752;9.180;2023-04-01T12:12:42;10.90;99.90
423;DHT22;198;48.752;9.180;2023-04-01T12:15:20;10.80;99.90
423;DHT22;198;48.752;9.180;2023-04-01T12:17:56;10.80;99.90
423;DHT22;198;48.752;9.180;2023-04-01T12:26:15;10.80;99.90
423;DHT22;198;48.752;9.180;2023-04-01T12:31:35;10.50;99.90
423;DHT22;198;48.752;9.180;2023-04-01T12:37:01;11.00;99.90
423;DHT22;198;48.752;9.180;2023-04-01T12:48:15;12.60;99.90
423;DHT22;198;48.752;9.180;2023-04-01T12:51:07;12.80;99.90
423;DHT22;198;48.752;9.180;2023-04-01T13:07:45;13.10;99.90
423;DHT22;198;48.752;9.180;2023-04-01T13:10:45;12.70;99.90
423;DHT22;198;48.752;9.180;2023-04-01T13:13:44;12.60;99.90
423;DHT22;198;48.752;9.180;2023-04-01T13:16:37;12.50;99.90
423;DHT22;198;48.752;9.180;2023-04-01T13:19:30;12.10;99.90
423;DHT22;198;48.752;9.180;2023-04-01T13:22:09;11.70;99.90
423;DHT22;198;48.752;9.180;2023-04-01T13:27:18;11.20;99.90
423;DHT22;198;48.752;9.180;2023-04-01T13:32:34;11.00;99.90
423;DHT22;198;48.752;9.180;2023-04-01T13:35:27;11.10;99.90
423;DHT22;198;48.752;9.180;2023-04-01T13:38:26;11.20;99.90
423;DHT22;198;48.752;9.180;2023-04-01T13:41:22;11.10;99.90
423;DHT22;198;48.752;9.180;2023-04-01T13:44:19;11.20;99.90
423;DHT22;198;48.752;9.180;2023-04-01T13:50:06;11.50;99.90
423;DHT22;198;48.752;9.180;2023-04-01T13:52:50;11.30;99.90
423;DHT22;198;48.752;9.180;2023-04-01T14:00:53;11.10;99.90
423;DHT22;198;48.752;9.180;2023-04-01T14:03:44;11.30;99.90
423;DHT22;198;48.752;9.180;2023-04-01T14:07:13;11.40;99.90
423;DHT22;198;48.752;9.180;2023-04-01T14:12:05;11.20;99.90
423;DHT22;198;48.752;9.180;2023-04-01T14:15:00;11.30;99.90
423;DHT22;198;48.752;9.180;2023-04-01T14:20:28;11.20;99.90
423;DHT22;198;48.752;9.180;2023-04-01T14:28:40;11.20;99.90
423;DHT22;198;48.752;9.180;2023-04-01T14:39:59;11.30;99.90
423;DHT22;198;48.752;9.180;2023-04-01T14:48:24;10.90;99.90
423;DHT22;198;48.752;9.180;2023-04-01T14:50:53;10.90;99.90
423;DHT22;198;48.752;9.180;2023-04-01T14:55:51;10.80;99.90
423;DHT22;198;48.752;9.180;2023-04-01T14:58:19;10.90;99.90
423;DHT22;198;48.752;9.180;2023-04-01T15:09:16;11.10;99.90
423;DHT22;198;48.752;9.180;2023-04-01T15:14:49;11.00;99.90
423;DHT22;198;48.752;9.180;2023-04-01T15:17:43;11.10;99.90
423;DHT22;198;48.752;9.180;2023-04-01T15:20:29;11.00;99.90
423;DHT22;198;48.752;9.180;2023-04-01T15:23:05;11.00;99.90
423;DHT22;198;48.752;9.180;2023-04-01T15:26:03;11.00;99.90
423;DHT22;198;48.752;9.180;2023-04-01T15:31:38;10.80;99.90
423;DHT22;198;48.752;9.180;2023-04-01T15:37:21;11.10;99.90
423;DHT22;198;48.752;9.180;2023-04-01T15:40:00;11.30;99.90
423;DHT22;198;48.752;9.180;2023-04-01T15:42:43;11.20;99.90
423;DHT22;198;48.752;9.180;2023-04-01T15:47:58;11.20;99.90
423;DHT22;198;48.752;9.180;2023-04-01T15:55:59;11.00;99.90
423;DHT22;198;48.752;9.180;2023-04-01T16:23:25;10.40;99.90
423;DHT22;198;48.752;9.180;2023-04-01T16:26:08;10.40;99.90
423;DHT22;198;48.752;9.180;2023-04-01T16:28:49;10.40;99.90
423;DHT22;198;48.752;9.180;2023-04-01T16:31:16;10.40;99.90
423;DHT22;198;48.752;9.180;2023-04-01T16:34:14;10.40;99.90
423;DHT22;198;48.752;9.180;2023-04-01T16:36:52;10.40;99.90
423;DHT22;198;48.752;9.180;2023-04-01T16:44:47;10.30;99.90
423;DHT22;198;48.752;9.180;2023-04-01T16:47:19;10.40;99.90
423;DHT22;198;48.752;9.180;2023-04-01T16:50:21;10.40;99.90
423;DHT22;198;48.752;9.180;2023-04-01T16:53:19;10.40;99.90
423;DHT22;198;48.752;9.180;2023-04-01T16:55:56;10.50;99.90
423;DHT22;198;48.752;9.180;2023-04-01T16:58:34;10.50;99.90
423;DHT22;198;48.752;9.180;2023-04-01T17:01:07;10.60;99.90
423;DHT22;198;48.752;9.180;2023-04-01T17:03:45;10.50;99.90
423;DHT22;198;48.752;9.180;2023-04-01T17:06:47;10.40;99.90
423;DHT22;198;48.752;9.180;2023-04-01T17:14:46;10.40;99.90
423;DHT22;198;48.752;9.180;2023-04-01T17:18:05;10.40;99.90
423;DHT22;198;48.752;9.180;2023-04-01T17:23:29;10.40;99.90
423;DHT22;198;48.752;9.180;2023-04-01T17:26:19;10.30;99.90
423;DHT22;198;48.752;9.180;2023-04-01T17:28:57;10.30;99.90
423;DHT22;198;48.752;9.180;2023-04-01T17:37:06;10.20;99.90
423;DHT22;198;48.752;9.180;2023-04-01T17:42:36;10.10;99.90
423;DHT22;198;48.752;9.180;2023-04-01T17:51:30;10.20;99.90
423;DHT22;198;48.752;9.180;2023-04-01T17:57:22;10.20;99.90
423;DHT22;198;48.752;9.180;2023-04-01T18:06:07;10.10;99.90
423;DHT22;198;48.752;9.180;2023-04-01T18:08:56;10.10;99.90
423;DHT22;198;48.752;9.180;2023-04-01T18:14:49;10.00;99.90
423;DHT22;198;48.752;9.180;2023-04-01T18:20:25;9.90;99.90
423;DHT22;198;48.752;9.180;2023-04-01T18:23:23;9.80;99.90
423;DHT22;198;48.752;9.180;2023-04-01T18:26:07;9.90;99.90
423;DHT22;198;48.752;9.180;2023-04-01T18:29:04;9.80;99.90
423;DHT22;198;48.752;9.180;2023-04-01T18:31:39;9.80;99.90
423;DHT22;198;48.752;9.180;2023-04-01T18:36:55;9.70;99.90
423;DHT22;198;48.752;9.180;2023-04-01T18:39:22;9.60;99.90
423;DHT22;198;48.752;9.180;2023-04-01T18:41:56;9.50;99.90
423;DHT22;198;48.752;9.180;2023-04-01T18:44:50;9.40;99.90
423;DHT22;198;48.752;9.180;2023-04-01T18:47:27;9.30;99.90
423;DHT22;198;48.752;9.180;2023-04-01T18:50:37;9.10;99.90
423;DHT22;198;48.752;9.180;2023-04-01T18:55:49;9.00;99.90
423;DHT22;198;48.752;9.180;2023-04-01T19:01:19;8.90;99.90
423;DHT22;198;48.752;9.180;2023-04-01T19:04:10;8.80;99.90
423;DHT22;198;48.752;9.180;2023-04-01T19:06:48;8.70;99.90
423;DHT22;198;48.752;9.180;2023-04-01T19:09:31;8.70;99.90
423;DHT22;198;48.752;9.180;2023-04-01T19:15:21;8.50;99.90
423;DHT22;198;48.752;9.180;2023-04-01T19:21:10;8.50;99.90
423;DHT22;198;48.752;9.180;2023-04-01T19:24:05;8.40;99.90
423;DHT22;198;48.752;9.180;2023-04-01T19:29:36;8.40;99.90
423;DHT22;198;48.752;9.180;2023-04-01T19:32:35;8.40;99.90
423;DHT22;198;48.752;9.180;2023-04-01T19:35:26;8.40;99.90
423;DHT22;198;48.752;9.180;2023-04-01T19:37:59;8.40;99.90
423;DHT22;198;48.752;9.180;2023-04-01T19:51:39;8.50;99.90
423;DHT22;198;48.752;9.180;2023-04-01T19:54:16;8.50;99.90
423;DHT22;198;48.752;9.180;2023-04-01T19:56:58;8.50;99.90
423;DHT22;198;48.752;9.180;2023-04-01T19:59:31;8.50;99.90
423;DHT22;198;48.752;9.180;2023-04-01T20:04:43;8.50;99.90
423;DHT22;198;48.752;9.180;2023-04-01T20:07:34;8.50;99.90
423;DHT22;198;48.752;9.180;2023-04-01T20:13:06;8.50;99.90
423;DHT22;198;48.752;9.180;2023-04-01T20:15:39;8.60;99.90
423;DHT22;198;48.752;9.180;2023-04-01T20:18:16;8.60;99.90
423;DHT22;198;48.752;9.180;2023-04-01T20:24:00;8.50;99.90
423;DHT22;198;48.752;9.180;2023-04-01T20:26:40;8.50;99.90
423;DHT22;198;48.752;9.180;2023-04-01T20:35:06;8.50;99.90
423;DHT22;198;48.752;9.180;2023-04-01T20:37:40;8.60;99.90
423;DHT22;198;48.752;9.180;2023-04-01T20:43:20;8.60;99.90
423;DHT22;198;48.752;9.180;2023-04-01T20:51:30;8.70;99.90
423;DHT22;198;48.752;9.180;2023-04-01T20:56:46;8.70;99.90
423;DHT22;198;48.752;9.180;2023-04-01T21:14:00;8.50;99.90
423;DHT22;198;48.752;9.180;2023-04-01T21:19:59;8.50;99.90
423;DHT22;198;48.752;9.180;2023-04-01T21:28:17;8.50;99.90
423;DHT22;198;48.752;9.180;2023-04-01T21:31:00;8.50;99.90
423;DHT22;198;48.752;9.180;2023-04-01T21:42:49;8.60;99.90
423;DHT22;198;48.752;9.180;2023-04-01T21:46:11;8.60;99.90
423;DHT22;198;48.752;9.180;2023-04-01T21:54:34;8.50;99.90
423;DHT22;198;48.752;9.180;2023-04-01T22:00:00;8.50;99.90
423;DHT22;198;48.752;9.180;2023-04-01T22:05:25;8.40;99.90
423;DHT22;198;48.752;9.180;2023-04-01T22:10:47;8.40;99.90
423;DHT22;198;48.752;9.180;2023-04-01T22:13:26;8.30;99.90
423;DHT22;198;48.752;9.180;2023-04-01T22:18:55;8.30;99.90
423;DHT22;198;48.752;9.180;2023-04-01T22:22:13;8.30;99.90
423;DHT22;198;48.752;9.180;2023-04-01T22:24:50;8.40;99.90
423;DHT22;198;48.752;9.180;2023-04-01T22:30:23;8.30;99.90
423;DHT22;198;48.752;9.180;2023-04-01T22:38:23;8.40;99.90
423;DHT22;198;48.752;9.180;2023-04-01T22:41:02;8.30;99.90
423;DHT22;198;48.752;9.180;2023-04-01T22:43:39;8.40;99.90
423;DHT22;198;48.752;9.180;2023-04-01T22:49:12;8.40;99.90
423;DHT22;198;48.752;9.180;2023-04-01T22:54:23;8.40;99.90
423;DHT22;198;48.752;9.180;2023-04-01T22:56:56;8.40;99.90
423;DHT22;198;48.752;9.180;2023-04-01T22:59:35;8.30;99.90
423;DHT22;198;48.752;9.180;2023-04-01T23:02:50;8.30;99.90
423;DHT22;198;48.752;9.180;2023-04-01T23:05:18;8.40;99.90
423;DHT22;198;48.752;9.180;2023-04-01T23:10:39;8.30;99.90
423;DHT22;198;48.752;9.180;2023-04-01T23:13:09;8.30;99.90
423;DHT22;198;48.752;9.180;2023-04-01T23:15:37;8.30;99.90
423;DHT22;198;48.752;9.180;2023-04-01T23:18:18;8.30;99.90
423;DHT22;198;48.752;9.180;2023-04-01T23:23:26;8.30;99.90
423;DHT22;198;48.752;9.180;2023-04-01T23:26:17;8.40;99.90
423;DHT22;198;48.752;9.180;2023-04-01T23:28:54;8.40;99.90
423;DHT22;198;48.752;9.180;2023-04-01T23:31:39;8.50;99.90
423;DHT22;198;48.752;9.180;2023-04-01T23:36:47;8.40;99.90
423;DHT22;198;48.752;9.180;2023-04-01T23:39:23;8.40;99.90
423;DHT22;198;48.752;9.180;2023-04-01T23:41:51;8.40;99.90
423;DHT22;198;48.752;9.180;2023-04-01T23:44:18;8.40;99.90
423;DHT22;198;48.752;9.180;2023-04-01T23:46:46;8.40;99.90
423;DHT22;198;48.752;9.180;2023-04-01T23:49:21;8.40;99.90
423;DHT22;198;48.752;9.180;2023-04-01T23:51:53;8.40;99.90
423;DHT22;198;48.752;9.180;2023-04-01T23:54:28;8.50;99.90
423;DHT22;198;48.752;9.180;2023-04-01T23:56:56;8.40;99.90
423;DHT22;198;48.752;9.180;2023-04-01T23:59:30;8.40;99.90
